sensor_id;sensor_type;location;lat;lon;timestamp;temperature;humidity
23063;DHT22;11699;43.704;10.430;2023-08-01T00:00:12;24.50;99.90
23063;DHT22;11699;43.704;10.430;2023-08-01T00:02:39;24.60;99.90
23063;DHT22;11699;43.704;10.430;2023-08-01T00:05:09;24.70;99.90
23063;DHT22;11699;43.704;10.430;2023-08-01T00:07:36;24.80;99.90
23063;DHT22;11699;43.704;10.430;2023-08-01T00:10:05;24.90;99.90
23063;DHT22;11699;43.704;10.430;2023-08-01T00:12:33;25.00;99.90
23063;DHT22;11699;43.704;10.430;2023-08-01T00:15:00;25.00;99.90
23063;DHT22;11699;43.704;10.430;2023-08-01T00:17:27;25.00;99.90
23063;DHT22;11699;43.704;10.430;2023-08-01T00:19:54;25.10;99.90
23063;DHT22;11699;43.704;10.430;2023-08-01T00:22:22;25.20;99.90
23063;DHT22;11699;43.704;10.430;2023-08-01T00:24:49;25.10;99.90
23063;DHT22;11699;43.704;10.430;2023-08-01T00:27:17;25.10;99.90
23063;DHT22;11699;43.704;10.430;2023-08-01T00:29:45;25.10;99.90
23063;DHT22;11699;43.704;10.430;2023-08-01T00:32:12;25.20;99.90
23063;DHT22;11699;43.704;10.430;2023-08-01T00:34:39;25.10;99.90
23063;DHT22;11699;43.704;10.430;2023-08-01T00:37:06;25.00;99.90
23063;DHT22;11699;43.704;10.430;2023-08-01T00:39:33;25.10;99.90
23063;DHT22;11699;43.704;10.430;2023-08-01T00:42:00;25.20;99.90
23063;DHT22;11699;43.704;10.430;2023-08-01T00:44:29;25.10;99.90
23063;DHT22;11699;43.704;10.430;2023-08-01T00:46:56;25.10;99.90
23063;DHT22;11699;43.704;10.430;2023-08-01T00:49:23;25.00;99.90
23063;DHT22;11699;43.704;10.430;2023-08-01T00:51:51;25.00;99.90
23063;DHT22;11699;43.704;10.430;2023-08-01T00:54:19;25.00;99.90
23063;DHT22;11699;43.704;10.430;2023-08-01T00:56:46;24.90;99.90
23063;DHT22;11699;43.704;10.430;2023-08-01T00:59:13;24.90;99.90
23063;DHT22;11699;43.704;10.430;2023-08-01T01:01:42;24.80;99.90
23063;DHT22;11699;43.704;10.430;2023-08-01T01:04:09;24.80;99.90
23063;DHT22;11699;43.704;10.430;2023-08-01T01:06:40;24.60;99.90
23063;DHT22;11699;43.704;10.430;2023-08-01T01:09:15;24.60;99.90
23063;DHT22;11699;43.704;10.430;2023-08-01T01:11:42;24.60;99.90
23063;DHT22;11699;43.704;10.430;2023-08-01T01:14:09;24.50;99.90
23063;DHT22;11699;43.704;10.430;2023-08-01T01:16:37;24.40;99.90
23063;DHT22;11699;43.704;10.430;2023-08-01T01:19:08;24.30;99.90
23063;DHT22;11699;43.704;10.430;2023-08-01T01:21:39;24.30;99.90
23063;DHT22;11699;43.704;10.430;2023-08-01T01:24:09;24.30;99.90
23063;DHT22;11699;43.704;10.430;2023-08-01T01:26:37;24.30;99.90
23063;DHT22;11699;43.704;10.430;2023-08-01T01:29:05;24.20;99.90
23063;DHT22;11699;43.704;10.430;2023-08-01T01:31:35;24.10;99.90
23063;DHT22;11699;43.704;10.430;2023-08-01T01:34:03;24.00;99.90
23063;DHT22;11699;43.704;10.430;2023-08-01T01:36:30;24.10;99.90
23063;DHT22;11699;43.704;10.430;2023-08-01T01:38:59;24.00;99.90
23063;DHT22;11699;43.704;10.430;2023-08-01T01:41:26;23.90;99.90
23063;DHT22;11699;43.704;10.430;2023-08-01T01:43:53;23.80;99.90
23063;DHT22;11699;43.704;10.430;2023-08-01T01:46:20;23.60;99.90
23063;DHT22;11699;43.704;10.430;2023-08-01T01:48:47;23.60;99.90
23063;DHT22;11699;43.704;10.430;2023-08-01T01:51:15;23.60;99.90
23063;DHT22;11699;43.704;10.430;2023-08-01T01:53:42;23.60;99.90
23063;DHT22;11699;43.704;10.430;2023-08-01T01:56:10;23.60;99.90
23063;DHT22;11699;43.704;10.430;2023-08-01T01:58:37;23.60;99.90
23063;DHT22;11699;43.704;10.430;2023-08-01T02:01:05;23.50;99.90
23063;DHT22;11699;43.704;10.430;2023-08-01T02:03:32;23.40;99.90
23063;DHT22;11699;43.704;10.430;2023-08-01T02:05:59;23.40;99.90
23063;DHT22;11699;43.704;10.430;2023-08-01T02:08:26;23.40;99.90
23063;DHT22;11699;43.704;10.430;2023-08-01T02:10:53;23.40;99.90
23063;DHT22;11699;43.704;10.430;2023-08-01T02:13:26;23.30;99.90
23063;DHT22;11699;43.704;10.430;2023-08-01T02:15:53;23.40;99.90
23063;DHT22;11699;43.704;10.430;2023-08-01T02:18:20;23.30;99.90
23063;DHT22;11699;43.704;10.430;2023-08-01T02:20:48;23.20;99.90
23063;DHT22;11699;43.704;10.430;2023-08-01T02:23:15;23.20;99.90
23063;DHT22;11699;43.704;10.430;2023-08-01T02:25:42;23.30;99.90
23063;DHT22;11699;43.704;10.430;2023-08-01T02:28:10;23.40;99.90
23063;DHT22;11699;43.704;10.430;2023-08-01T02:30:39;23.40;99.90
23063;DHT22;11699;43.704;10.430;2023-08-01T02:33:07;23.30;99.90
23063;DHT22;11699;43.704;10.430;2023-08-01T02:35:34;23.30;99.90
23063;DHT22;11699;43.704;10.430;2023-08-01T02:38:02;23.40;99.90
23063;DHT22;11699;43.704;10.430;2023-08-01T02:40:30;23.30;99.90
23063;DHT22;11699;43.704;10.430;2023-08-01T02:42:57;23.40;99.90
23063;DHT22;11699;43.704;10.430;2023-08-01T02:45:24;23.30;99.90
23063;DHT22;11699;43.704;10.430;2023-08-01T02:47:52;23.30;99.90
23063;DHT22;11699;43.704;10.430;2023-08-01T02:50:19;23.40;99.90
23063;DHT22;11699;43.704;10.430;2023-08-01T02:52:47;23.60;99.90
23063;DHT22;11699;43.704;10.430;2023-08-01T02:55:14;23.70;99.90
23063;DHT22;11699;43.704;10.430;2023-08-01T02:57:41;23.70;99.90
23063;DHT22;11699;43.704;10.430;2023-08-01T03:00:09;23.70;99.90
23063;DHT22;11699;43.704;10.430;2023-08-01T03:02:37;23.90;99.90
23063;DHT22;11699;43.704;10.430;2023-08-01T03:05:09;24.00;99.90
23063;DHT22;11699;43.704;10.430;2023-08-01T03:07:36;24.00;99.90
23063;DHT22;11699;43.704;10.430;2023-08-01T03:10:04;24.00;99.90
23063;DHT22;11699;43.704;10.430;2023-08-01T03:12:32;23.90;99.90
23063;DHT22;11699;43.704;10.430;2023-08-01T03:14:59;23.90;99.90
23063;DHT22;11699;43.704;10.430;2023-08-01T03:17:26;24.00;99.90
23063;DHT22;11699;43.704;10.430;2023-08-01T03:19:53;24.10;99.90
23063;DHT22;11699;43.704;10.430;2023-08-01T03:22:22;24.10;99.90
23063;DHT22;11699;43.704;10.430;2023-08-01T03:24:49;24.10;99.90
23063;DHT22;11699;43.704;10.430;2023-08-01T03:27:16;23.90;99.90
23063;DHT22;11699;43.704;10.430;2023-08-01T03:29:44;23.90;99.90
23063;DHT22;11699;43.704;10.430;2023-08-01T03:32:11;23.90;99.90
23063;DHT22;11699;43.704;10.430;2023-08-01T03:34:38;23.90;99.90
23063;DHT22;11699;43.704;10.430;2023-08-01T03:37:07;23.80;99.90
23063;DHT22;11699;43.704;10.430;2023-08-01T03:39:35;23.80;99.90
23063;DHT22;11699;43.704;10.430;2023-08-01T03:42:03;23.70;99.90
23063;DHT22;11699;43.704;10.430;2023-08-01T03:44:30;23.70;99.90
23063;DHT22;11699;43.704;10.430;2023-08-01T03:46:57;23.70;99.90
23063;DHT22;11699;43.704;10.430;2023-08-01T03:49:25;23.70;99.90
23063;DHT22;11699;43.704;10.430;2023-08-01T03:51:52;23.60;99.90
23063;DHT22;11699;43.704;10.430;2023-08-01T03:54:19;23.60;99.90
23063;DHT22;11699;43.704;10.430;2023-08-01T03:56:47;23.60;99.90
23063;DHT22;11699;43.704;10.430;2023-08-01T03:59:15;23.60;99.90
23063;DHT22;11699;43.704;10.430;2023-08-01T04:01:42;23.60;99.90
23063;DHT22;11699;43.704;10.430;2023-08-01T04:04:10;23.50;99.90
23063;DHT22;11699;43.704;10.430;2023-08-01T04:06:37;23.40;99.90
23063;DHT22;11699;43.704;10.430;2023-08-01T04:09:04;23.40;99.90
23063;DHT22;11699;43.704;10.430;2023-08-01T04:11:32;23.40;99.90
23063;DHT22;11699;43.704;10.430;2023-08-01T04:14:00;23.30;99.90
23063;DHT22;11699;43.704;10.430;2023-08-01T04:16:28;23.40;99.90
23063;DHT22;11699;43.704;10.430;2023-08-01T04:18:55;23.40;99.90
23063;DHT22;11699;43.704;10.430;2023-08-01T04:21:22;23.40;99.90
23063;DHT22;11699;43.704;10.430;2023-08-01T04:23:50;23.30;99.90
23063;DHT22;11699;43.704;10.430;2023-08-01T04:26:17;23.30;99.90
23063;DHT22;11699;43.704;10.430;2023-08-01T04:28:45;23.20;99.90
23063;DHT22;11699;43.704;10.430;2023-08-01T04:31:14;23.40;99.90
23063;DHT22;11699;43.704;10.430;2023-08-01T04:33:41;23.40;99.90
23063;DHT22;11699;43.704;10.430;2023-08-01T04:36:08;23.40;99.90
23063;DHT22;11699;43.704;10.430;2023-08-01T04:38:35;23.30;99.90
23063;DHT22;11699;43.704;10.430;2023-08-01T04:41:02;23.30;99.90
23063;DHT22;11699;43.704;10.430;2023-08-01T04:43:29;23.20;99.90
23063;DHT22;11699;43.704;10.430;2023-08-01T04:45:56;23.20;99.90
23063;DHT22;11699;43.704;10.430;2023-08-01T04:48:25;23.20;99.90
23063;DHT22;11699;43.704;10.430;2023-08-01T04:50:52;23.20;99.90
23063;DHT22;11699;43.704;10.430;2023-08-01T04:53:19;23.30;99.90
23063;DHT22;11699;43.704;10.430;2023-08-01T04:55:46;23.30;99.90
23063;DHT22;11699;43.704;10.430;2023-08-01T04:58:13;23.30;99.90
23063;DHT22;11699;43.704;10.430;2023-08-01T05:00:42;23.40;99.90
23063;DHT22;11699;43.704;10.430;2023-08-01T05:03:09;23.50;99.90
23063;DHT22;11699;43.704;10.430;2023-08-01T05:05:37;23.50;99.90
23063;DHT22;11699;43.704;10.430;2023-08-01T05:08:04;23.40;99.90
23063;DHT22;11699;43.704;10.430;2023-08-01T05:10:32;23.50;99.90
23063;DHT22;11699;43.704;10.430;2023-08-01T05:12:59;23.50;99.90
23063;DHT22;11699;43.704;10.430;2023-08-01T05:15:26;23.60;99.90
23063;DHT22;11699;43.704;10.430;2023-08-01T05:17:53;23.70;99.90
23063;DHT22;11699;43.704;10.430;2023-08-01T05:20:21;23.80;99.90
23063;DHT22;11699;43.704;10.430;2023-08-01T05:22:50;23.80;99.90
23063;DHT22;11699;43.704;10.430;2023-08-01T05:25:17;23.90;99.90
23063;DHT22;11699;43.704;10.430;2023-08-01T05:27:44;24.10;99.90
23063;DHT22;11699;43.704;10.430;2023-08-01T05:30:11;24.10;99.90
23063;DHT22;11699;43.704;10.430;2023-08-01T05:32:38;24.10;99.90
23063;DHT22;11699;43.704;10.430;2023-08-01T05:35:07;24.10;99.90
23063;DHT22;11699;43.704;10.430;2023-08-01T05:37:35;24.20;99.90
23063;DHT22;11699;43.704;10.430;2023-08-01T05:40:05;24.20;99.90
23063;DHT22;11699;43.704;10.430;2023-08-01T05:42:32;24.20;99.90
23063;DHT22;11699;43.704;10.430;2023-08-01T05:44:59;24.30;99.90
23063;DHT22;11699;43.704;10.430;2023-08-01T05:47:26;24.30;99.90
23063;DHT22;11699;43.704;10.430;2023-08-01T05:49:53;24.40;99.90
23063;DHT22;11699;43.704;10.430;2023-08-01T05:52:20;24.50;99.90
23063;DHT22;11699;43.704;10.430;2023-08-01T05:54:47;24.60;99.90
23063;DHT22;11699;43.704;10.430;2023-08-01T05:57:16;24.60;99.90
23063;DHT22;11699;43.704;10.430;2023-08-01T05:59:43;24.80;99.90
23063;DHT22;11699;43.704;10.430;2023-08-01T06:02:10;24.80;99.90
23063;DHT22;11699;43.704;10.430;2023-08-01T06:04:37;24.80;99.90
23063;DHT22;11699;43.704;10.430;2023-08-01T06:07:05;24.70;99.90
23063;DHT22;11699;43.704;10.430;2023-08-01T06:09:32;24.60;99.90
23063;DHT22;11699;43.704;10.430;2023-08-01T06:11:59;24.50;99.90
23063;DHT22;11699;43.704;10.430;2023-08-01T06:14:28;24.60;99.90
23063;DHT22;11699;43.704;10.430;2023-08-01T06:16:55;24.80;99.90
23063;DHT22;11699;43.704;10.430;2023-08-01T06:19:22;25.10;99.90
23063;DHT22;11699;43.704;10.430;2023-08-01T06:21:50;25.30;99.90
23063;DHT22;11699;43.704;10.430;2023-08-01T06:24:17;25.30;99.90
23063;DHT22;11699;43.704;10.430;2023-08-01T06:26:44;25.40;99.90
23063;DHT22;11699;43.704;10.430;2023-08-01T06:29:11;25.30;99.90
23063;DHT22;11699;43.704;10.430;2023-08-01T06:31:40;25.30;99.90
23063;DHT22;11699;43.704;10.430;2023-08-01T06:34:07;25.40;99.90
23063;DHT22;11699;43.704;10.430;2023-08-01T06:36:34;25.50;99.90
23063;DHT22;11699;43.704;10.430;2023-08-01T06:39:01;25.40;99.90
23063;DHT22;11699;43.704;10.430;2023-08-01T06:41:29;25.40;99.90
23063;DHT22;11699;43.704;10.430;2023-08-01T06:43:56;25.60;99.90
23063;DHT22;11699;43.704;10.430;2023-08-01T06:46:23;25.70;99.90
23063;DHT22;11699;43.704;10.430;2023-08-01T06:48:52;25.90;99.90
23063;DHT22;11699;43.704;10.430;2023-08-01T06:51:19;26.10;99.90
23063;DHT22;11699;43.704;10.430;2023-08-01T06:53:46;26.20;99.90
23063;DHT22;11699;43.704;10.430;2023-08-01T06:56:14;26.30;99.90
23063;DHT22;11699;43.704;10.430;2023-08-01T06:58:41;26.20;99.90
23063;DHT22;11699;43.704;10.430;2023-08-01T07:01:08;26.30;99.90
23063;DHT22;11699;43.704;10.430;2023-08-01T07:03:35;26.00;99.90
23063;DHT22;11699;43.704;10.430;2023-08-01T07:06:03;26.10;99.90
23063;DHT22;11699;43.704;10.430;2023-08-01T07:08:30;26.50;99.90
23063;DHT22;11699;43.704;10.430;2023-08-01T07:10:58;27.10;99.90
23063;DHT22;11699;43.704;10.430;2023-08-01T07:13:25;26.90;99.90
23063;DHT22;11699;43.704;10.430;2023-08-01T07:15:52;27.40;99.90
23063;DHT22;11699;43.704;10.430;2023-08-01T07:18:20;28.00;99.90
23063;DHT22;11699;43.704;10.430;2023-08-01T07:20:47;28.10;99.90
23063;DHT22;11699;43.704;10.430;2023-08-01T07:23:16;27.80;99.90
23063;DHT22;11699;43.704;10.430;2023-08-01T07:25:43;27.80;99.90
23063;DHT22;11699;43.704;10.430;2023-08-01T07:28:10;27.70;99.90
23063;DHT22;11699;43.704;10.430;2023-08-01T07:30:37;27.90;99.90
23063;DHT22;11699;43.704;10.430;2023-08-01T07:33:04;28.00;99.90
23063;DHT22;11699;43.704;10.430;2023-08-01T07:35:31;27.40;99.90
23063;DHT22;11699;43.704;10.430;2023-08-01T07:37:58;27.30;99.90
23063;DHT22;11699;43.704;10.430;2023-08-01T07:40:27;27.70;99.90
23063;DHT22;11699;43.704;10.430;2023-08-01T07:42:54;27.90;99.90
23063;DHT22;11699;43.704;10.430;2023-08-01T07:45:21;27.60;99.90
23063;DHT22;11699;43.704;10.430;2023-08-01T07:47:49;27.20;99.90
23063;DHT22;11699;43.704;10.430;2023-08-01T07:50:16;27.00;99.90
23063;DHT22;11699;43.704;10.430;2023-08-01T07:52:43;27.20;99.90
23063;DHT22;11699;43.704;10.430;2023-08-01T07:55:11;26.90;99.90
23063;DHT22;11699;43.704;10.430;2023-08-01T07:57:40;26.70;99.90
23063;DHT22;11699;43.704;10.430;2023-08-01T08:00:08;26.50;99.90
23063;DHT22;11699;43.704;10.430;2023-08-01T08:02:36;26.60;99.90
23063;DHT22;11699;43.704;10.430;2023-08-01T08:05:03;26.30;99.90
23063;DHT22;11699;43.704;10.430;2023-08-01T08:07:31;26.20;99.90
23063;DHT22;11699;43.704;10.430;2023-08-01T08:09:58;26.00;99.90
23063;DHT22;11699;43.704;10.430;2023-08-01T08:12:25;26.00;99.90
23063;DHT22;11699;43.704;10.430;2023-08-01T08:14:54;26.10;99.90
23063;DHT22;11699;43.704;10.430;2023-08-01T08:17:21;26.10;99.90
23063;DHT22;11699;43.704;10.430;2023-08-01T08:19:48;26.10;99.90
23063;DHT22;11699;43.704;10.430;2023-08-01T08:22:15;26.40;99.90
23063;DHT22;11699;43.704;10.430;2023-08-01T08:24:43;26.40;99.90
23063;DHT22;11699;43.704;10.430;2023-08-01T08:27:10;26.60;99.90
23063;DHT22;11699;43.704;10.430;2023-08-01T08:29:37;26.70;99.90
23063;DHT22;11699;43.704;10.430;2023-08-01T08:32:07;26.80;99.90
23063;DHT22;11699;43.704;10.430;2023-08-01T08:34:34;27.00;99.90
23063;DHT22;11699;43.704;10.430;2023-08-01T08:37:01;27.10;99.90
23063;DHT22;11699;43.704;10.430;2023-08-01T08:39:29;27.10;99.90
23063;DHT22;11699;43.704;10.430;2023-08-01T08:41:56;27.00;99.90
23063;DHT22;11699;43.704;10.430;2023-08-01T08:44:24;27.10;99.90
23063;DHT22;11699;43.704;10.430;2023-08-01T08:46:54;27.30;99.90
23063;DHT22;11699;43.704;10.430;2023-08-01T08:49:24;27.30;99.90
23063;DHT22;11699;43.704;10.430;2023-08-01T08:51:52;27.70;99.90
23063;DHT22;11699;43.704;10.430;2023-08-01T08:54:21;28.90;99.90
23063;DHT22;11699;43.704;10.430;2023-08-01T08:56:49;29.70;99.90
23063;DHT22;11699;43.704;10.430;2023-08-01T08:59:17;29.90;99.90
23063;DHT22;11699;43.704;10.430;2023-08-01T09:01:45;30.40;99.90
23063;DHT22;11699;43.704;10.430;2023-08-01T09:04:13;30.10;99.90
23063;DHT22;11699;43.704;10.430;2023-08-01T09:06:45;30.70;99.90
23063;DHT22;11699;43.704;10.430;2023-08-01T09:09:13;31.20;99.90
23063;DHT22;11699;43.704;10.430;2023-08-01T09:11:44;31.40;99.90
23063;DHT22;11699;43.704;10.430;2023-08-01T09:14:11;31.50;99.90
23063;DHT22;11699;43.704;10.430;2023-08-01T09:16:39;31.30;99.90
23063;DHT22;11699;43.704;10.430;2023-08-01T09:19:07;30.60;99.90
23063;DHT22;11699;43.704;10.430;2023-08-01T09:21:35;30.30;99.90
23063;DHT22;11699;43.704;10.430;2023-08-01T09:24:12;30.20;99.90
23063;DHT22;11699;43.704;10.430;2023-08-01T09:26:40;30.00;99.90
23063;DHT22;11699;43.704;10.430;2023-08-01T09:29:07;30.70;99.90
23063;DHT22;11699;43.704;10.430;2023-08-01T09:31:36;31.30;99.90
23063;DHT22;11699;43.704;10.430;2023-08-01T09:34:17;31.30;99.90
23063;DHT22;11699;43.704;10.430;2023-08-01T09:36:44;31.80;99.90
23063;DHT22;11699;43.704;10.430;2023-08-01T09:39:16;32.40;99.90
23063;DHT22;11699;43.704;10.430;2023-08-01T09:41:44;32.60;99.90
23063;DHT22;11699;43.704;10.430;2023-08-01T09:44:11;33.10;99.90
23063;DHT22;11699;43.704;10.430;2023-08-01T09:46:38;33.70;99.90
23063;DHT22;11699;43.704;10.430;2023-08-01T09:49:09;33.90;99.90
23063;DHT22;11699;43.704;10.430;2023-08-01T09:51:46;34.20;99.90
23063;DHT22;11699;43.704;10.430;2023-08-01T09:54:16;34.30;99.90
23063;DHT22;11699;43.704;10.430;2023-08-01T09:56:45;34.50;99.90
23063;DHT22;11699;43.704;10.430;2023-08-01T09:59:13;34.50;99.90
23063;DHT22;11699;43.704;10.430;2023-08-01T10:01:48;34.80;99.90
23063;DHT22;11699;43.704;10.430;2023-08-01T10:04:18;34.30;99.90
23063;DHT22;11699;43.704;10.430;2023-08-01T10:06:48;33.50;99.90
23063;DHT22;11699;43.704;10.430;2023-08-01T10:09:18;33.00;99.90
23063;DHT22;11699;43.704;10.430;2023-08-01T10:11:45;33.00;99.90
23063;DHT22;11699;43.704;10.430;2023-08-01T10:14:13;33.50;99.90
23063;DHT22;11699;43.704;10.430;2023-08-01T10:16:41;33.70;99.90
23063;DHT22;11699;43.704;10.430;2023-08-01T10:19:09;33.90;99.90
23063;DHT22;11699;43.704;10.430;2023-08-01T10:21:38;33.50;99.90
23063;DHT22;11699;43.704;10.430;2023-08-01T10:24:06;32.50;99.90
23063;DHT22;11699;43.704;10.430;2023-08-01T10:26:35;31.80;99.90
23063;DHT22;11699;43.704;10.430;2023-08-01T10:29:03;31.40;99.90
23063;DHT22;11699;43.704;10.430;2023-08-01T10:31:30;31.00;99.90
23063;DHT22;11699;43.704;10.430;2023-08-01T10:34:13;30.90;99.90
23063;DHT22;11699;43.704;10.430;2023-08-01T10:36:40;30.70;99.90
23063;DHT22;11699;43.704;10.430;2023-08-01T10:39:08;30.30;99.90
23063;DHT22;11699;43.704;10.430;2023-08-01T10:41:37;30.30;99.90
23063;DHT22;11699;43.704;10.430;2023-08-01T10:44:05;30.70;99.90
23063;DHT22;11699;43.704;10.430;2023-08-01T10:46:49;30.80;99.90
23063;DHT22;11699;43.704;10.430;2023-08-01T10:49:17;30.90;99.90
23063;DHT22;11699;43.704;10.430;2023-08-01T10:51:45;30.50;99.90
23063;DHT22;11699;43.704;10.430;2023-08-01T10:54:19;30.30;99.90
23063;DHT22;11699;43.704;10.430;2023-08-01T10:56:51;30.70;99.90
23063;DHT22;11699;43.704;10.430;2023-08-01T10:59:19;31.20;99.90
23063;DHT22;11699;43.704;10.430;2023-08-01T11:01:49;31.90;99.90
23063;DHT22;11699;43.704;10.430;2023-08-01T11:04:17;32.30;99.90
23063;DHT22;11699;43.704;10.430;2023-08-01T11:06:46;32.20;99.90
23063;DHT22;11699;43.704;10.430;2023-08-01T11:09:18;31.80;99.90
23063;DHT22;11699;43.704;10.430;2023-08-01T11:11:46;31.50;99.90
23063;DHT22;11699;43.704;10.430;2023-08-01T11:14:16;31.20;99.90
23063;DHT22;11699;43.704;10.430;2023-08-01T11:16:43;31.10;99.90
23063;DHT22;11699;43.704;10.430;2023-08-01T11:19:22;31.10;99.90
23063;DHT22;11699;43.704;10.430;2023-08-01T11:21:49;30.80;99.90
23063;DHT22;11699;43.704;10.430;2023-08-01T11:24:18;30.80;99.90
23063;DHT22;11699;43.704;10.430;2023-08-01T11:26:47;30.90;99.90
23063;DHT22;11699;43.704;10.430;2023-08-01T11:29:17;30.90;99.90
23063;DHT22;11699;43.704;10.430;2023-08-01T11:31:52;31.30;99.90
23063;DHT22;11699;43.704;10.430;2023-08-01T11:34:20;32.30;99.90
23063;DHT22;11699;43.704;10.430;2023-08-01T11:36:47;32.80;99.90
23063;DHT22;11699;43.704;10.430;2023-08-01T11:39:15;33.00;99.90
23063;DHT22;11699;43.704;10.430;2023-08-01T11:41:43;32.30;99.90
23063;DHT22;11699;43.704;10.430;2023-08-01T11:44:10;32.30;99.90
23063;DHT22;11699;43.704;10.430;2023-08-01T11:46:39;32.30;99.90
23063;DHT22;11699;43.704;10.430;2023-08-01T11:49:07;32.20;99.90
23063;DHT22;11699;43.704;10.430;2023-08-01T11:51:39;31.90;99.90
23063;DHT22;11699;43.704;10.430;2023-08-01T11:54:07;31.40;99.90
23063;DHT22;11699;43.704;10.430;2023-08-01T11:56:36;31.00;99.90
23063;DHT22;11699;43.704;10.430;2023-08-01T11:59:10;30.70;99.90
23063;DHT22;11699;43.704;10.430;2023-08-01T12:01:40;30.70;99.90
23063;DHT22;11699;43.704;10.430;2023-08-01T12:04:08;31.10;99.90
23063;DHT22;11699;43.704;10.430;2023-08-01T12:06:36;31.10;99.90
23063;DHT22;11699;43.704;10.430;2023-08-01T12:09:09;31.80;99.90
23063;DHT22;11699;43.704;10.430;2023-08-01T12:11:36;31.70;99.90
23063;DHT22;11699;43.704;10.430;2023-08-01T12:14:06;31.00;99.90
23063;DHT22;11699;43.704;10.430;2023-08-01T12:16:35;30.90;99.90
23063;DHT22;11699;43.704;10.430;2023-08-01T12:19:04;31.30;99.90
23063;DHT22;11699;43.704;10.430;2023-08-01T12:21:33;30.70;99.90
23063;DHT22;11699;43.704;10.430;2023-08-01T12:24:00;30.20;99.90
23063;DHT22;11699;43.704;10.430;2023-08-01T12:26:28;30.00;99.90
23063;DHT22;11699;43.704;10.430;2023-08-01T12:28:55;30.50;99.90
23063;DHT22;11699;43.704;10.430;2023-08-01T12:31:23;30.40;99.90
23063;DHT22;11699;43.704;10.430;2023-08-01T12:33:50;29.80;99.90
23063;DHT22;11699;43.704;10.430;2023-08-01T12:36:20;29.80;99.90
23063;DHT22;11699;43.704;10.430;2023-08-01T12:38:47;29.60;99.90
23063;DHT22;11699;43.704;10.430;2023-08-01T12:41:14;29.50;99.90
23063;DHT22;11699;43.704;10.430;2023-08-01T12:43:41;29.40;99.90
23063;DHT22;11699;43.704;10.430;2023-08-01T12:46:08;29.30;99.90
23063;DHT22;11699;43.704;10.430;2023-08-01T12:48:36;29.20;99.90
23063;DHT22;11699;43.704;10.430;2023-08-01T12:51:04;29.70;99.90
23063;DHT22;11699;43.704;10.430;2023-08-01T12:53:33;30.10;99.90
23063;DHT22;11699;43.704;10.430;2023-08-01T12:56:00;30.20;99.90
23063;DHT22;11699;43.704;10.430;2023-08-01T12:58:28;30.80;99.90
23063;DHT22;11699;43.704;10.430;2023-08-01T13:00:56;31.50;99.90
23063;DHT22;11699;43.704;10.430;2023-08-01T13:03:23;32.20;99.90
23063;DHT22;11699;43.704;10.430;2023-08-01T13:05:50;32.40;99.90
23063;DHT22;11699;43.704;10.430;2023-08-01T13:08:19;32.00;99.90
23063;DHT22;11699;43.704;10.430;2023-08-01T13:10:47;31.30;99.90
23063;DHT22;11699;43.704;10.430;2023-08-01T13:13:15;30.80;99.90
23063;DHT22;11699;43.704;10.430;2023-08-01T13:15:42;30.60;99.90
23063;DHT22;11699;43.704;10.430;2023-08-01T13:18:10;30.70;99.90
23063;DHT22;11699;43.704;10.430;2023-08-01T13:20:37;30.60;99.90
23063;DHT22;11699;43.704;10.430;2023-08-01T13:23:04;30.40;99.90
23063;DHT22;11699;43.704;10.430;2023-08-01T13:25:31;30.20;99.90
23063;DHT22;11699;43.704;10.430;2023-08-01T13:28:00;30.10;99.90
23063;DHT22;11699;43.704;10.430;2023-08-01T13:30:27;30.10;99.90
23063;DHT22;11699;43.704;10.430;2023-08-01T13:32:54;30.10;99.90
23063;DHT22;11699;43.704;10.430;2023-08-01T13:35:21;29.80;99.90
23063;DHT22;11699;43.704;10.430;2023-08-01T13:37:49;29.80;99.90
23063;DHT22;11699;43.704;10.430;2023-08-01T13:40:16;29.80;99.90
23063;DHT22;11699;43.704;10.430;2023-08-01T13:42:43;29.60;99.90
23063;DHT22;11699;43.704;10.430;2023-08-01T13:45:12;29.50;99.90
23063;DHT22;11699;43.704;10.430;2023-08-01T13:47:39;29.50;99.90
23063;DHT22;11699;43.704;10.430;2023-08-01T13:50:07;29.50;99.90
23063;DHT22;11699;43.704;10.430;2023-08-01T13:52:36;29.40;99.90
23063;DHT22;11699;43.704;10.430;2023-08-01T13:55:04;29.40;99.90
23063;DHT22;11699;43.704;10.430;2023-08-01T13:57:33;29.30;99.90
23063;DHT22;11699;43.704;10.430;2023-08-01T14:00:00;29.30;99.90
23063;DHT22;11699;43.704;10.430;2023-08-01T14:02:28;29.30;99.90
23063;DHT22;11699;43.704;10.430;2023-08-01T14:04:56;29.40;99.90
23063;DHT22;11699;43.704;10.430;2023-08-01T14:07:23;29.50;99.90
23063;DHT22;11699;43.704;10.430;2023-08-01T14:09:50;29.50;99.90
23063;DHT22;11699;43.704;10.430;2023-08-01T14:12:18;29.70;99.90
23063;DHT22;11699;43.704;10.430;2023-08-01T14:14:46;29.70;99.90
23063;DHT22;11699;43.704;10.430;2023-08-01T14:17:13;29.50;99.90
23063;DHT22;11699;43.704;10.430;2023-08-01T14:19:41;29.20;99.90
23063;DHT22;11699;43.704;10.430;2023-08-01T14:22:08;29.20;99.90
23063;DHT22;11699;43.704;10.430;2023-08-01T14:24:35;29.30;99.90
23063;DHT22;11699;43.704;10.430;2023-08-01T14:27:03;29.80;99.90
23063;DHT22;11699;43.704;10.430;2023-08-01T14:29:30;30.20;99.90
23063;DHT22;11699;43.704;10.430;2023-08-01T14:31:57;30.10;99.90
23063;DHT22;11699;43.704;10.430;2023-08-01T14:34:25;30.10;99.90
23063;DHT22;11699;43.704;10.430;2023-08-01T14:36:53;30.00;99.90
23063;DHT22;11699;43.704;10.430;2023-08-01T14:39:20;29.90;99.90
23063;DHT22;11699;43.704;10.430;2023-08-01T14:41:47;29.90;99.90
23063;DHT22;11699;43.704;10.430;2023-08-01T14:44:15;29.90;99.90
23063;DHT22;11699;43.704;10.430;2023-08-01T14:46:42;30.00;99.90
23063;DHT22;11699;43.704;10.430;2023-08-01T14:49:10;29.90;99.90
23063;DHT22;11699;43.704;10.430;2023-08-01T14:51:37;30.00;99.90
23063;DHT22;11699;43.704;10.430;2023-08-01T14:54:06;29.70;99.90
23063;DHT22;11699;43.704;10.430;2023-08-01T14:56:33;29.70;99.90
23063;DHT22;11699;43.704;10.430;2023-08-01T14:59:00;29.70;99.90
23063;DHT22;11699;43.704;10.430;2023-08-01T15:01:27;29.90;99.90
23063;DHT22;11699;43.704;10.430;2023-08-01T15:03:54;29.90;99.90
23063;DHT22;11699;43.704;10.430;2023-08-01T15:06:21;29.80;99.90
23063;DHT22;11699;43.704;10.430;2023-08-01T15:08:52;29.80;99.90
23063;DHT22;11699;43.704;10.430;2023-08-01T15:11:22;29.40;99.90
23063;DHT22;11699;43.704;10.430;2023-08-01T15:13:49;29.10;99.90
23063;DHT22;11699;43.704;10.430;2023-08-01T15:16:16;29.00;99.90
23063;DHT22;11699;43.704;10.430;2023-08-01T15:18:44;28.90;99.90